sensor_id;sensor_type;location;lat;lon;timestamp;P1;durP1;ratioP1;P2;durP2;ratioP2
23624;SDS011;11989;47.872;12.014;2022-12-13T07:01:41;26.98;;;14.90;;
23624;SDS011;11989;47.872;12.014;2022-12-13T07:04:08;27.58;;;12.52;;
23624;SDS011;11989;47.872;12.014;2022-12-13T07:06:36;26.15;;;12.70;;
23624;SDS011;11989;47.872;12.014;2022-12-13T07:09:02;28.60;;;14.38;;
23624;SDS011;11989;47.872;12.014;2022-12-13T07:11:29;26.35;;;13.35;;
23624;SDS011;11989;47.872;12.014;2022-12-13T07:13:57;23.45;;;13.02;;
23624;SDS011;11989;47.872;12.014;2022-12-13T07:16:23;24.38;;;13.60;;
23624;SDS011;11989;47.872;12.014;2022-12-13T07:18:53;29.30;;;13.38;;
23624;SDS011;11989;47.872;12.014;2022-12-13T07:21:19;28.92;;;13.88;;
23624;SDS011;11989;47.872;12.014;2022-12-13T07:23:45;24.67;;;13.02;;
23624;SDS011;11989;47.872;12.014;2022-12-13T07:26:12;23.00;;;13.23;;
23624;SDS011;11989;47.872;12.014;2022-12-13T07:28:38;23.67;;;12.45;;
23624;SDS011;11989;47.872;12.014;2022-12-13T07:31:05;24.30;;;12.70;;
23624;SDS011;11989;47.872;12.014;2022-12-13T07:33:32;26.02;;;13.20;;
23624;SDS011;11989;47.872;12.014;2022-12-13T07:35:59;30.38;;;16.70;;
23624;SDS011;11989;47.872;12.014;2022-12-13T07:38:25;22.98;;;13.77;;
23624;SDS011;11989;47.872;12.014;2022-12-13T07:40:54;23.77;;;14.32;;
23624;SDS011;11989;47.872;12.014;2022-12-13T07:43:20;27.08;;;14.18;;
23624;SDS011;11989;47.872;12.014;2022-12-13T07:45:46;28.35;;;15.85;;
23624;SDS011;11989;47.872;12.014;2022-12-13T07:48:12;56.30;;;23.60;;
23624;SDS011;11989;47.872;12.014;2022-12-13T07:50:38;100.75;;;37.70;;
23624;SDS011;11989;47.872;12.014;2022-12-13T07:53:05;83.95;;;34.47;;
23624;SDS011;11989;47.872;12.014;2022-12-13T07:55:32;59.60;;;27.88;;
23624;SDS011;11989;47.872;12.014;2022-12-13T07:58:11;37.45;;;19.13;;
23624;SDS011;11989;47.872;12.014;2022-12-13T08:00:38;30.15;;;18.13;;
23624;SDS011;11989;47.872;12.014;2022-12-13T08:03:04;22.88;;;13.00;;
23624;SDS011;11989;47.872;12.014;2022-12-13T08:05:31;25.33;;;13.52;;
23624;SDS011;11989;47.872;12.014;2022-12-13T08:07:58;23.10;;;13.32;;
23624;SDS011;11989;47.872;12.014;2022-12-13T08:10:25;23.48;;;12.20;;
23624;SDS011;11989;47.872;12.014;2022-12-13T08:12:51;25.35;;;13.02;;
23624;SDS011;11989;47.872;12.014;2022-12-13T08:15:17;24.23;;;13.07;;
23624;SDS011;11989;47.872;12.014;2022-12-13T08:17:44;30.80;;;14.55;;
23624;SDS011;11989;47.872;12.014;2022-12-13T08:20:10;24.45;;;14.20;;
23624;SDS011;11989;47.872;12.014;2022-12-13T08:22:36;17.88;;;11.60;;
23624;SDS011;11989;47.872;12.014;2022-12-13T08:25:03;22.02;;;12.38;;
23624;SDS011;11989;47.872;12.014;2022-12-13T08:27:30;18.15;;;11.68;;
23624;SDS011;11989;47.872;12.014;2022-12-13T08:29:56;18.73;;;12.73;;
23624;SDS011;11989;47.872;12.014;2022-12-13T08:32:22;19.27;;;12.02;;
23624;SDS011;11989;47.872;12.014;2022-12-13T08:34:48;20.58;;;11.43;;
23624;SDS011;11989;47.872;12.014;2022-12-13T08:37:14;19.05;;;10.57;;
23624;SDS011;11989;47.872;12.014;2022-12-13T08:39:41;19.75;;;10.77;;
23624;SDS011;11989;47.872;12.014;2022-12-13T08:42:12;19.10;;;10.65;;
23624;SDS011;11989;47.872;12.014;2022-12-13T08:44:39;17.70;;;10.90;;
23624;SDS011;11989;47.872;12.014;2022-12-13T08:47:05;22.20;;;12.73;;
23624;SDS011;11989;47.872;12.014;2022-12-13T08:49:31;19.05;;;13.20;;
23624;SDS011;11989;47.872;12.014;2022-12-13T08:51:57;24.17;;;14.02;;
23624;SDS011;11989;47.872;12.014;2022-12-13T08:54:23;20.58;;;11.93;;
23624;SDS011;11989;47.872;12.014;2022-12-13T08:56:50;18.42;;;11.02;;
23624;SDS011;11989;47.872;12.014;2022-12-13T08:59:16;17.75;;;10.98;;
23624;SDS011;11989;47.872;12.014;2022-12-13T09:01:42;13.82;;;9.45;;
23624;SDS011;11989;47.872;12.014;2022-12-13T09:04:08;21.15;;;12.30;;
23624;SDS011;11989;47.872;12.014;2022-12-13T09:06:35;13.15;;;9.10;;
23624;SDS011;11989;47.872;12.014;2022-12-13T09:09:01;12.27;;;8.00;;
23624;SDS011;11989;47.872;12.014;2022-12-13T09:11:27;14.10;;;8.45;;
23624;SDS011;11989;47.872;12.014;2022-12-13T09:13:53;13.57;;;8.60;;
23624;SDS011;11989;47.872;12.014;2022-12-13T09:16:20;14.93;;;8.40;;
23624;SDS011;11989;47.872;12.014;2022-12-13T09:18:48;14.63;;;10.07;;
23624;SDS011;11989;47.872;12.014;2022-12-13T09:21:14;18.80;;;9.98;;
23624;SDS011;11989;47.872;12.014;2022-12-13T09:23:40;18.70;;;9.77;;
23624;SDS011;11989;47.872;12.014;2022-12-13T09:26:07;12.30;;;8.95;;
23624;SDS011;11989;47.872;12.014;2022-12-13T09:28:34;16.70;;;10.70;;
23624;SDS011;11989;47.872;12.014;2022-12-13T09:31:15;13.70;;;8.02;;
23624;SDS011;11989;47.872;12.014;2022-12-13T09:33:42;12.20;;;7.68;;
23624;SDS011;11989;47.872;12.014;2022-12-13T09:36:12;11.15;;;8.10;;
23624;SDS011;11989;47.872;12.014;2022-12-13T09:38:39;10.98;;;8.20;;
23624;SDS011;11989;47.872;12.014;2022-12-13T09:41:12;11.23;;;8.10;;
23624;SDS011;11989;47.872;12.014;2022-12-13T09:43:41;12.43;;;7.95;;
23624;SDS011;11989;47.872;12.014;2022-12-13T09:46:10;11.57;;;8.18;;
23624;SDS011;11989;47.872;12.014;2022-12-13T09:48:39;13.85;;;8.70;;
23624;SDS011;11989;47.872;12.014;2022-12-13T09:51:07;13.18;;;8.77;;
23624;SDS011;11989;47.872;12.014;2022-12-13T09:53:34;14.40;;;8.95;;
23624;SDS011;11989;47.872;12.014;2022-12-13T09:56:00;12.63;;;8.18;;
23624;SDS011;11989;47.872;12.014;2022-12-13T09:58:27;13.32;;;8.43;;
23624;SDS011;11989;47.872;12.014;2022-12-13T10:00:54;11.88;;;7.88;;
23624;SDS011;11989;47.872;12.014;2022-12-13T10:03:21;13.88;;;8.05;;
23624;SDS011;11989;47.872;12.014;2022-12-13T10:05:57;12.00;;;7.32;;
23624;SDS011;11989;47.872;12.014;2022-12-13T10:08:29;15.90;;;8.27;;
23624;SDS011;11989;47.872;12.014;2022-12-13T10:10:57;13.27;;;8.65;;
23624;SDS011;11989;47.872;12.014;2022-12-13T10:16:03;14.20;;;8.00;;
23624;SDS011;11989;47.872;12.014;2022-12-13T10:18:41;11.80;;;7.68;;
23624;SDS011;11989;47.872;12.014;2022-12-13T10:23:37;11.25;;;8.00;;
23624;SDS011;11989;47.872;12.014;2022-12-13T10:26:07;11.13;;;7.43;;
23624;SDS011;11989;47.872;12.014;2022-12-13T10:28:33;10.80;;;8.02;;
23624;SDS011;11989;47.872;12.014;2022-12-13T10:31:00;11.88;;;8.00;;
23624;SDS011;11989;47.872;12.014;2022-12-13T10:33:30;12.63;;;8.60;;
23624;SDS011;11989;47.872;12.014;2022-12-13T10:38:30;15.45;;;8.95;;
23624;SDS011;11989;47.872;12.014;2022-12-13T10:40:56;16.67;;;10.00;;
23624;SDS011;11989;47.872;12.014;2022-12-13T10:43:23;14.73;;;9.27;;
23624;SDS011;11989;47.872;12.014;2022-12-13T10:48:39;11.38;;;8.05;;
23624;SDS011;11989;47.872;12.014;2022-12-13T10:51:10;13.32;;;8.57;;
23624;SDS011;11989;47.872;12.014;2022-12-13T10:53:46;11.95;;;8.65;;
23624;SDS011;11989;47.872;12.014;2022-12-13T10:56:13;12.10;;;8.07;;
23624;SDS011;11989;47.872;12.014;2022-12-13T10:58:41;16.38;;;9.00;;
23624;SDS011;11989;47.872;12.014;2022-12-13T11:04:45;13.38;;;8.95;;
23624;SDS011;11989;47.872;12.014;2022-12-13T11:06:41;12.75;;;8.93;;
23624;SDS011;11989;47.872;12.014;2022-12-13T11:11:49;11.13;;;8.07;;
23624;SDS011;11989;47.872;12.014;2022-12-13T11:14:17;13.60;;;9.07;;
23624;SDS011;11989;47.872;12.014;2022-12-13T11:16:43;13.65;;;9.32;;
23624;SDS011;11989;47.872;12.014;2022-12-13T11:19:15;16.43;;;9.50;;
23624;SDS011;11989;47.872;12.014;2022-12-13T11:21:45;16.27;;;9.38;;
23624;SDS011;11989;47.872;12.014;2022-12-13T11:24:16;17.50;;;9.32;;
23624;SDS011;11989;47.872;12.014;2022-12-13T11:26:43;15.68;;;9.40;;
23624;SDS011;11989;47.872;12.014;2022-12-13T11:34:58;12.35;;;7.90;;
23624;SDS011;11989;47.872;12.014;2022-12-13T11:37:14;13.88;;;8.02;;
23624;SDS011;11989;47.872;12.014;2022-12-13T11:39:45;17.80;;;9.10;;
23624;SDS011;11989;47.872;12.014;2022-12-13T11:42:47;21.13;;;11.02;;
23624;SDS011;11989;47.872;12.014;2022-12-13T11:45:16;23.17;;;11.55;;
23624;SDS011;11989;47.872;12.014;2022-12-13T11:50:17;41.17;;;16.58;;
23624;SDS011;11989;47.872;12.014;2022-12-13T11:52:49;41.50;;;17.05;;
23624;SDS011;11989;47.872;12.014;2022-12-13T11:55:27;24.30;;;12.48;;
23624;SDS011;11989;47.872;12.014;2022-12-13T12:00:32;25.95;;;12.63;;
23624;SDS011;11989;47.872;12.014;2022-12-13T12:03:18;20.95;;;12.98;;
23624;SDS011;11989;47.872;12.014;2022-12-13T12:05:49;20.73;;;10.57;;
23624;SDS011;11989;47.872;12.014;2022-12-13T12:08:58;14.05;;;9.07;;
23624;SDS011;11989;47.872;12.014;2022-12-13T12:13:51;10.68;;;7.78;;
23624;SDS011;11989;47.872;12.014;2022-12-13T12:19:13;22.17;;;8.75;;
23624;SDS011;11989;47.872;12.014;2022-12-13T12:30:25;13.48;;;9.20;;
23624;SDS011;11989;47.872;12.014;2022-12-13T12:38:11;15.48;;;9.80;;
23624;SDS011;11989;47.872;12.014;2022-12-13T12:41:16;13.73;;;8.85;;
23624;SDS011;11989;47.872;12.014;2022-12-13T12:43:36;14.50;;;9.32;;
23624;SDS011;11989;47.872;12.014;2022-12-13T12:51:34;12.93;;;8.18;;
23624;SDS011;11989;47.872;12.014;2022-12-13T12:57:03;13.60;;;8.93;;
23624;SDS011;11989;47.872;12.014;2022-12-13T13:02:35;15.57;;;9.70;;
23624;SDS011;11989;47.872;12.014;2022-12-13T13:05:09;13.82;;;9.52;;
23624;SDS011;11989;47.872;12.014;2022-12-13T13:07:38;13.43;;;9.55;;
23624;SDS011;11989;47.872;12.014;2022-12-13T13:10:05;16.27;;;9.27;;
23624;SDS011;11989;47.872;12.014;2022-12-13T13:12:32;14.35;;;8.75;;
23624;SDS011;11989;47.872;12.014;2022-12-13T13:15:36;14.30;;;8.95;;
23624;SDS011;11989;47.872;12.014;2022-12-13T13:17:48;13.98;;;8.55;;
23624;SDS011;11989;47.872;12.014;2022-12-13T13:20:18;15.60;;;8.93;;
23624;SDS011;11989;47.872;12.014;2022-12-13T13:22:47;19.10;;;10.48;;
23624;SDS011;11989;47.872;12.014;2022-12-13T13:25:21;14.50;;;9.45;;
23624;SDS011;11989;47.872;12.014;2022-12-13T13:27:47;18.27;;;10.90;;
23624;SDS011;11989;47.872;12.014;2022-12-13T13:30:20;22.73;;;17.80;;
23624;SDS011;11989;47.872;12.014;2022-12-13T13:32:47;19.95;;;12.23;;
23624;SDS011;11989;47.872;12.014;2022-12-13T13:38:04;25.80;;;20.58;;
23624;SDS011;11989;47.872;12.014;2022-12-13T13:40:46;16.83;;;12.60;;
23624;SDS011;11989;47.872;12.014;2022-12-13T13:43:13;19.95;;;16.10;;
23624;SDS011;11989;47.872;12.014;2022-12-13T13:53:30;15.65;;;10.48;;
23624;SDS011;11989;47.872;12.014;2022-12-13T14:04:07;18.05;;;9.45;;
23624;SDS011;11989;47.872;12.014;2022-12-13T14:24:50;13.05;;;9.30;;
23624;SDS011;11989;47.872;12.014;2022-12-13T14:30:01;17.38;;;9.27;;
23624;SDS011;11989;47.872;12.014;2022-12-13T14:32:28;13.98;;;8.85;;
23624;SDS011;11989;47.872;12.014;2022-12-13T14:34:55;21.20;;;10.52;;
23624;SDS011;11989;47.872;12.014;2022-12-13T14:37:34;17.10;;;10.57;;
23624;SDS011;11989;47.872;12.014;2022-12-13T14:40:02;17.25;;;10.38;;
23624;SDS011;11989;47.872;12.014;2022-12-13T14:42:49;17.85;;;10.68;;
23624;SDS011;11989;47.872;12.014;2022-12-13T14:45:25;17.02;;;10.73;;
23624;SDS011;11989;47.872;12.014;2022-12-13T14:47:53;18.92;;;11.35;;
23624;SDS011;11989;47.872;12.014;2022-12-13T14:50:20;16.65;;;10.43;;
23624;SDS011;11989;47.872;12.014;2022-12-13T14:52:46;24.33;;;12.45;;
23624;SDS011;11989;47.872;12.014;2022-12-13T14:55:30;19.75;;;10.93;;
23624;SDS011;11989;47.872;12.014;2022-12-13T14:57:58;18.25;;;10.70;;
23624;SDS011;11989;47.872;12.014;2022-12-13T15:00:28;22.38;;;13.43;;
23624;SDS011;11989;47.872;12.014;2022-12-13T15:02:57;27.35;;;16.17;;
23624;SDS011;11989;47.872;12.014;2022-12-13T15:07:53;22.17;;;13.40;;
23624;SDS011;11989;47.872;12.014;2022-12-13T15:10:24;28.58;;;16.27;;
23624;SDS011;11989;47.872;12.014;2022-12-13T15:12:52;26.38;;;13.55;;
23624;SDS011;11989;47.872;12.014;2022-12-13T15:15:29;29.10;;;15.20;;
23624;SDS011;11989;47.872;12.014;2022-12-13T15:20:41;35.08;;;17.35;;
23624;SDS011;11989;47.872;12.014;2022-12-13T15:25:36;38.00;;;18.17;;
23624;SDS011;11989;47.872;12.014;2022-12-13T15:28:02;40.35;;;20.77;;
23624;SDS011;11989;47.872;12.014;2022-12-13T15:30:30;44.05;;;23.63;;
23624;SDS011;11989;47.872;12.014;2022-12-13T15:35:28;50.22;;;23.55;;
23624;SDS011;11989;47.872;12.014;2022-12-13T15:37:54;45.33;;;21.13;;
23624;SDS011;11989;47.872;12.014;2022-12-13T15:40:21;43.13;;;19.88;;
23624;SDS011;11989;47.872;12.014;2022-12-13T15:42:47;43.88;;;22.08;;
23624;SDS011;11989;47.872;12.014;2022-12-13T15:45:23;30.52;;;16.90;;
23624;SDS011;11989;47.872;12.014;2022-12-13T15:47:50;30.70;;;17.98;;
23624;SDS011;11989;47.872;12.014;2022-12-13T15:53:14;44.05;;;22.83;;
23624;SDS011;11989;47.872;12.014;2022-12-13T15:55:42;43.22;;;22.63;;
23624;SDS011;11989;47.872;12.014;2022-12-13T16:01:05;35.90;;;22.27;;
23624;SDS011;11989;47.872;12.014;2022-12-13T16:03:38;40.47;;;21.42;;
23624;SDS011;11989;47.872;12.014;2022-12-13T16:06:05;35.38;;;21.63;;
23624;SDS011;11989;47.872;12.014;2022-12-13T16:08:34;52.65;;;29.30;;
23624;SDS011;11989;47.872;12.014;2022-12-13T16:11:01;46.20;;;24.77;;
23624;SDS011;11989;47.872;12.014;2022-12-13T16:13:31;66.05;;;34.00;;
23624;SDS011;11989;47.872;12.014;2022-12-13T16:15:58;50.45;;;29.85;;
23624;SDS011;11989;47.872;12.014;2022-12-13T16:18:31;45.45;;;24.75;;
23624;SDS011;11989;47.872;12.014;2022-12-13T16:20:58;38.50;;;24.55;;
23624;SDS011;11989;47.872;12.014;2022-12-13T16:23:24;34.10;;;21.80;;
23624;SDS011;11989;47.872;12.014;2022-12-13T16:25:50;39.13;;;24.05;;
23624;SDS011;11989;47.872;12.014;2022-12-13T16:28:16;39.97;;;23.60;;
23624;SDS011;11989;47.872;12.014;2022-12-13T16:33:18;69.13;;;43.00;;
23624;SDS011;11989;47.872;12.014;2022-12-13T16:35:44;74.35;;;44.17;;
23624;SDS011;11989;47.872;12.014;2022-12-13T16:38:11;60.53;;;37.00;;
23624;SDS011;11989;47.872;12.014;2022-12-13T16:40:37;75.32;;;41.25;;
23624;SDS011;11989;47.872;12.014;2022-12-13T16:43:04;60.78;;;34.95;;
23624;SDS011;11989;47.872;12.014;2022-12-13T16:45:38;81.93;;;47.95;;
23624;SDS011;11989;47.872;12.014;2022-12-13T16:48:04;69.10;;;42.25;;
23624;SDS011;11989;47.872;12.014;2022-12-13T16:50:31;75.95;;;43.53;;
23624;SDS011;11989;47.872;12.014;2022-12-13T16:52:57;68.32;;;39.22;;
23624;SDS011;11989;47.872;12.014;2022-12-13T16:55:23;60.70;;;33.95;;
23624;SDS011;11989;47.872;12.014;2022-12-13T16:57:57;60.92;;;35.97;;
23624;SDS011;11989;47.872;12.014;2022-12-13T17:00:24;60.88;;;33.88;;
23624;SDS011;11989;47.872;12.014;2022-12-13T17:02:50;70.78;;;38.85;;
23624;SDS011;11989;47.872;12.014;2022-12-13T17:05:17;94.82;;;52.38;;
23624;SDS011;11989;47.872;12.014;2022-12-13T17:07:43;123.65;;;65.07;;
23624;SDS011;11989;47.872;12.014;2022-12-13T17:10:09;147.05;;;78.75;;
23624;SDS011;11989;47.872;12.014;2022-12-13T17:12:35;99.88;;;49.65;;
23624;SDS011;11989;47.872;12.014;2022-12-13T17:15:02;91.20;;;44.60;;
23624;SDS011;11989;47.872;12.014;2022-12-13T17:17:28;84.95;;;44.17;;
23624;SDS011;11989;47.872;12.014;2022-12-13T17:19:54;81.13;;;43.30;;
23624;SDS011;11989;47.872;12.014;2022-12-13T17:22:20;58.83;;;32.80;;
23624;SDS011;11989;47.872;12.014;2022-12-13T17:24:46;50.28;;;27.98;;
23624;SDS011;11989;47.872;12.014;2022-12-13T17:27:12;41.83;;;21.98;;
23624;SDS011;11989;47.872;12.014;2022-12-13T17:29:38;41.25;;;23.17;;
23624;SDS011;11989;47.872;12.014;2022-12-13T17:32:04;37.53;;;24.25;;
23624;SDS011;11989;47.872;12.014;2022-12-13T17:34:30;43.72;;;24.00;;
23624;SDS011;11989;47.872;12.014;2022-12-13T17:36:57;133.23;;;55.30;;
23624;SDS011;11989;47.872;12.014;2022-12-13T17:39:23;75.82;;;39.38;;
23624;SDS011;11989;47.872;12.014;2022-12-13T17:41:50;104.35;;;58.83;;
23624;SDS011;11989;47.872;12.014;2022-12-13T17:44:16;129.95;;;64.03;;
23624;SDS011;11989;47.872;12.014;2022-12-13T17:46:42;88.93;;;45.95;;
23624;SDS011;11989;47.872;12.014;2022-12-13T17:49:09;57.75;;;33.22;;
23624;SDS011;11989;47.872;12.014;2022-12-13T17:51:35;50.67;;;29.95;;
23624;SDS011;11989;47.872;12.014;2022-12-13T17:54:02;52.75;;;31.70;;
23624;SDS011;11989;47.872;12.014;2022-12-13T17:56:28;56.13;;;32.00;;
23624;SDS011;11989;47.872;12.014;2022-12-13T17:58:54;59.00;;;34.47;;
23624;SDS011;11989;47.872;12.014;2022-12-13T18:01:21;85.75;;;47.17;;
23624;SDS011;11989;47.872;12.014;2022-12-13T18:03:49;67.35;;;38.75;;
23624;SDS011;11989;47.872;12.014;2022-12-13T18:06:16;77.25;;;41.35;;
23624;SDS011;11989;47.872;12.014;2022-12-13T18:08:42;63.85;;;38.72;;
23624;SDS011;11989;47.872;12.014;2022-12-13T18:11:09;76.38;;;36.58;;
23624;SDS011;11989;47.872;12.014;2022-12-13T18:13:35;63.38;;;32.85;;
23624;SDS011;11989;47.872;12.014;2022-12-13T18:16:05;55.67;;;31.45;;
23624;SDS011;11989;47.872;12.014;2022-12-13T18:18:32;84.32;;;40.60;;
23624;SDS011;11989;47.872;12.014;2022-12-13T18:21:04;101.72;;;46.13;;
23624;SDS011;11989;47.872;12.014;2022-12-13T18:23:31;105.15;;;47.08;;
23624;SDS011;11989;47.872;12.014;2022-12-13T18:25:58;77.00;;;37.83;;
23624;SDS011;11989;47.872;12.014;2022-12-13T18:28:25;75.40;;;34.58;;
23624;SDS011;11989;47.872;12.014;2022-12-13T18:30:51;97.68;;;41.83;;
23624;SDS011;11989;47.872;12.014;2022-12-13T18:33:17;82.75;;;39.85;;
23624;SDS011;11989;47.872;12.014;2022-12-13T18:35:43;110.65;;;53.55;;
23624;SDS011;11989;47.872;12.014;2022-12-13T18:38:09;64.85;;;34.20;;
23624;SDS011;11989;47.872;12.014;2022-12-13T18:40:35;65.45;;;34.72;;
23624;SDS011;11989;47.872;12.014;2022-12-13T18:43:01;86.50;;;47.75;;
23624;SDS011;11989;47.872;12.014;2022-12-13T18:45:27;66.32;;;37.40;;
23624;SDS011;11989;47.872;12.014;2022-12-13T18:47:53;70.00;;;36.05;;
23624;SDS011;11989;47.872;12.014;2022-12-13T18:50:19;66.15;;;38.63;;
23624;SDS011;11989;47.872;12.014;2022-12-13T18:52:45;64.03;;;37.20;;
23624;SDS011;11989;47.872;12.014;2022-12-13T18:55:11;52.90;;;30.30;;
23624;SDS011;11989;47.872;12.014;2022-12-13T18:57:37;45.28;;;24.95;;
23624;SDS011;11989;47.872;12.014;2022-12-13T19:00:03;40.00;;;23.30;;
23624;SDS011;11989;47.872;12.014;2022-12-13T19:02:30;37.25;;;20.70;;
23624;SDS011;11989;47.872;12.014;2022-12-13T19:04:56;47.70;;;24.10;;
23624;SDS011;11989;47.872;12.014;2022-12-13T19:07:22;44.38;;;23.55;;
23624;SDS011;11989;47.872;12.014;2022-12-13T19:09:48;47.00;;;24.00;;
23624;SDS011;11989;47.872;12.014;2022-12-13T19:12:14;44.47;;;24.35;;
23624;SDS011;11989;47.872;12.014;2022-12-13T19:14:40;51.45;;;28.67;;
23624;SDS011;11989;47.872;12.014;2022-12-13T19:17:07;47.97;;;28.33;;
23624;SDS011;11989;47.872;12.014;2022-12-13T19:19:33;62.92;;;30.70;;
23624;SDS011;11989;47.872;12.014;2022-12-13T19:21:59;56.72;;;30.27;;
23624;SDS011;11989;47.872;12.014;2022-12-13T19:24:25;62.97;;;32.40;;
23624;SDS011;11989;47.872;12.014;2022-12-13T19:26:51;64.60;;;35.50;;
23624;SDS011;11989;47.872;12.014;2022-12-13T19:29:17;62.25;;;33.53;;
23624;SDS011;11989;47.872;12.014;2022-12-13T19:31:44;61.78;;;30.80;;
23624;SDS011;11989;47.872;12.014;2022-12-13T19:34:10;64.43;;;34.38;;
23624;SDS011;11989;47.872;12.014;2022-12-13T19:36:37;65.20;;;32.03;;
23624;SDS011;11989;47.872;12.014;2022-12-13T19:39:03;56.03;;;32.88;;
23624;SDS011;11989;47.872;12.014;2022-12-13T19:41:29;52.05;;;29.23;;
23624;SDS011;11989;47.872;12.014;2022-12-13T19:44:00;46.67;;;26.27;;
23624;SDS011;11989;47.872;12.014;2022-12-13T19:46:27;39.60;;;22.08;;
23624;SDS011;11989;47.872;12.014;2022-12-13T19:48:54;54.17;;;27.50;;
23624;SDS011;11989;47.872;12.014;2022-12-13T19:51:20;43.58;;;25.65;;
23624;SDS011;11989;47.872;12.014;2022-12-13T19:53:46;43.13;;;22.67;;
23624;SDS011;11989;47.872;12.014;2022-12-13T19:56:14;32.72;;;18.63;;
23624;SDS011;11989;47.872;12.014;2022-12-13T19:58:41;43.58;;;24.17;;
23624;SDS011;11989;47.872;12.014;2022-12-13T20:01:08;60.20;;;33.75;;
23624;SDS011;11989;47.872;12.014;2022-12-13T20:03:35;64.88;;;35.95;;
23624;SDS011;11989;47.872;12.014;2022-12-13T20:06:02;56.50;;;32.50;;
23624;SDS011;11989;47.872;12.014;2022-12-13T20:08:29;58.90;;;34.05;;
23624;SDS011;11989;47.872;12.014;2022-12-13T20:10:56;72.68;;;38.05;;
23624;SDS011;11989;47.872;12.014;2022-12-13T20:13:22;229.82;;;91.03;;
23624;SDS011;11989;47.872;12.014;2022-12-13T20:15:49;125.60;;;54.35;;
23624;SDS011;11989;47.872;12.014;2022-12-13T20:18:15;65.85;;;36.17;;
23624;SDS011;11989;47.872;12.014;2022-12-13T20:20:41;66.18;;;36.78;;
23624;SDS011;11989;47.872;12.014;2022-12-13T20:23:07;62.28;;;35.33;;
23624;SDS011;11989;47.872;12.014;2022-12-13T20:25:33;50.75;;;29.80;;
23624;SDS011;11989;47.872;12.014;2022-12-13T20:27:59;50.30;;;31.58;;
23624;SDS011;11989;47.872;12.014;2022-12-13T20:30:25;53.78;;;32.50;;
23624;SDS011;11989;47.872;12.014;2022-12-13T20:32:51;51.63;;;28.65;;
23624;SDS011;11989;47.872;12.014;2022-12-13T20:35:18;52.28;;;27.65;;
23624;SDS011;11989;47.872;12.014;2022-12-13T20:37:44;48.13;;;27.70;;
23624;SDS011;11989;47.872;12.014;2022-12-13T20:40:12;45.05;;;25.48;;
23624;SDS011;11989;47.872;12.014;2022-12-13T20:42:38;43.28;;;23.85;;
23624;SDS011;11989;47.872;12.014;2022-12-13T20:45:05;39.65;;;21.90;;
23624;SDS011;11989;47.872;12.014;2022-12-13T20:47:31;37.35;;;21.77;;
23624;SDS011;11989;47.872;12.014;2022-12-13T20:49:57;38.92;;;20.90;;
23624;SDS011;11989;47.872;12.014;2022-12-13T20:52:24;41.45;;;21.65;;
23624;SDS011;11989;47.872;12.014;2022-12-13T20:54:50;40.67;;;22.50;;
23624;SDS011;11989;47.872;12.014;2022-12-13T20:57:16;35.83;;;19.50;;
23624;SDS011;11989;47.872;12.014;2022-12-13T20:59:42;37.30;;;20.75;;
23624;SDS011;11989;47.872;12.014;2022-12-13T21:02:09;42.55;;;22.60;;
23624;SDS011;11989;47.872;12.014;2022-12-13T21:04:35;34.00;;;19.17;;
23624;SDS011;11989;47.872;12.014;2022-12-13T21:07:03;36.67;;;19.15;;
23624;SDS011;11989;47.872;12.014;2022-12-13T21:09:29;32.80;;;18.52;;
23624;SDS011;11989;47.872;12.014;2022-12-13T21:11:55;33.17;;;18.52;;
23624;SDS011;11989;47.872;12.014;2022-12-13T21:14:25;29.45;;;17.58;;
23624;SDS011;11989;47.872;12.014;2022-12-13T21:16:53;32.60;;;17.88;;
23624;SDS011;11989;47.872;12.014;2022-12-13T21:19:24;34.03;;;18.35;;
23624;SDS011;11989;47.872;12.014;2022-12-13T21:21:50;32.17;;;19.10;;
23624;SDS011;11989;47.872;12.014;2022-12-13T21:24:17;39.42;;;21.90;;
23624;SDS011;11989;47.872;12.014;2022-12-13T21:26:44;36.00;;;19.75;;
23624;SDS011;11989;47.872;12.014;2022-12-13T21:29:10;37.78;;;19.85;;
23624;SDS011;11989;47.872;12.014;2022-12-13T21:31:37;32.33;;;17.45;;
23624;SDS011;11989;47.872;12.014;2022-12-13T21:34:04;28.33;;;16.77;;
23624;SDS011;11989;47.872;12.014;2022-12-13T21:36:34;36.95;;;19.08;;
23624;SDS011;11989;47.872;12.014;2022-12-13T21:39:03;30.58;;;18.60;;
23624;SDS011;11989;47.872;12.014;2022-12-13T21:41:29;28.63;;;16.83;;
23624;SDS011;11989;47.872;12.014;2022-12-13T21:43:55;37.22;;;18.55;;
23624;SDS011;11989;47.872;12.014;2022-12-13T21:46:22;33.85;;;19.33;;
23624;SDS011;11989;47.872;12.014;2022-12-13T21:48:49;32.90;;;19.67;;
23624;SDS011;11989;47.872;12.014;2022-12-13T21:51:16;29.30;;;19.70;;
23624;SDS011;11989;47.872;12.014;2022-12-13T21:53:43;29.15;;;17.00;;
23624;SDS011;11989;47.872;12.014;2022-12-13T21:56:13;37.20;;;21.30;;
23624;SDS011;11989;47.872;12.014;2022-12-13T21:58:58;30.85;;;18.63;;
23624;SDS011;11989;47.872;12.014;2022-12-13T22:01:47;31.13;;;18.27;;
23624;SDS011;11989;47.872;12.014;2022-12-13T22:04:33;31.55;;;18.13;;
23624;SDS011;11989;47.872;12.014;2022-12-13T22:06:59;32.00;;;18.17;;
23624;SDS011;11989;47.872;12.014;2022-12-13T22:09:25;31.23;;;18.38;;
23624;SDS011;11989;47.872;12.014;2022-12-13T22:11:51;35.00;;;18.13;;
23624;SDS011;11989;47.872;12.014;2022-12-13T22:14:17;27.63;;;18.65;;
23624;SDS011;11989;47.872;12.014;2022-12-13T22:16:43;34.22;;;19.70;;
23624;SDS011;11989;47.872;12.014;2022-12-13T22:19:13;31.33;;;18.27;;
23624;SDS011;11989;47.872;12.014;2022-12-13T22:21:39;32.15;;;18.33;;
23624;SDS011;11989;47.872;12.014;2022-12-13T22:24:06;28.83;;;16.20;;
23624;SDS011;11989;47.872;12.014;2022-12-13T22:26:32;39.47;;;19.50;;
23624;SDS011;11989;47.872;12.014;2022-12-13T22:28:58;34.65;;;19.27;;
23624;SDS011;11989;47.872;12.014;2022-12-13T22:31:24;26.65;;;17.05;;
23624;SDS011;11989;47.872;12.014;2022-12-13T22:33:50;28.13;;;18.25;;
23624;SDS011;11989;47.872;12.014;2022-12-13T22:36:16;29.58;;;17.52;;
23624;SDS011;11989;47.872;12.014;2022-12-13T22:38:45;38.90;;;20.70;;
23624;SDS011;11989;47.872;12.014;2022-12-13T22:41:11;35.65;;;20.27;;
23624;SDS011;11989;47.872;12.014;2022-12-13T22:43:40;31.63;;;19.17;;
23624;SDS011;11989;47.872;12.014;2022-12-13T22:46:07;27.20;;;17.13;;
23624;SDS011;11989;47.872;12.014;2022-12-13T22:48:33;25.88;;;16.48;;
23624;SDS011;11989;47.872;12.014;2022-12-13T22:51:00;33.17;;;19.17;;
23624;SDS011;11989;47.872;12.014;2022-12-13T22:53:26;23.30;;;15.45;;
23624;SDS011;11989;47.872;12.014;2022-12-13T22:55:52;32.38;;;18.42;;
23624;SDS011;11989;47.872;12.014;2022-12-13T22:58:18;36.65;;;19.30;;
23624;SDS011;11989;47.872;12.014;2022-12-13T23:00:44;36.92;;;18.67;;
23624;SDS011;11989;47.872;12.014;2022-12-13T23:03:10;27.38;;;17.10;;
23624;SDS011;11989;47.872;12.014;2022-12-13T23:05:36;31.05;;;17.42;;
23624;SDS011;11989;47.872;12.014;2022-12-13T23:08:02;32.50;;;16.73;;
23624;SDS011;11989;47.872;12.014;2022-12-13T23:10:29;28.27;;;16.92;;
23624;SDS011;11989;47.872;12.014;2022-12-13T23:13:13;28.17;;;16.33;;